sensor_id;sensor_type;location;lat;lon;timestamp;P1;P2;P0
64138;PMS5003;50435;43.700;-79.318;2023-04-24T00:01:31;5;3;
64138;PMS5003;50435;43.700;-79.318;2023-04-24T00:03:58;6;4;
64138;PMS5003;50435;43.700;-79.318;2023-04-24T00:06:25;4;3;
64138;PMS5003;50435;43.700;-79.318;2023-04-24T00:08:53;4;4;
64138;PMS5003;50435;43.700;-79.318;2023-04-24T00:11:20;5;5;
64138;PMS5003;50435;43.700;-79.318;2023-04-24T00:13:48;5;5;
64138;PMS5003;50435;43.700;-79.318;2023-04-24T00:16:15;5;5;
64138;PMS5003;50435;43.700;-79.318;2023-04-24T00:18:42;5;4;
64138;PMS5003;50435;43.700;-79.318;2023-04-24T00:21:10;4;4;
64138;PMS5003;50435;43.700;-79.318;2023-04-24T00:23:38;5;5;
64138;PMS5003;50435;43.700;-79.318;2023-04-24T00:26:05;4;4;
64138;PMS5003;50435;43.700;-79.318;2023-04-24T00:28:32;3;3;
64138;PMS5003;50435;43.700;-79.318;2023-04-24T00:31:00;4;4;
64138;PMS5003;50435;43.700;-79.318;2023-04-24T00:33:28;5;5;
64138;PMS5003;50435;43.700;-79.318;2023-04-24T00:35:56;5;5;
64138;PMS5003;50435;43.700;-79.318;2023-04-24T00:38:24;5;5;
64138;PMS5003;50435;43.700;-79.318;2023-04-24T00:40:51;5;4;
64138;PMS5003;50435;43.700;-79.318;2023-04-24T00:43:20;6;5;
64138;PMS5003;50435;43.700;-79.318;2023-04-24T00:45:47;4;3;
64138;PMS5003;50435;43.700;-79.318;2023-04-24T00:48:15;4;4;
64138;PMS5003;50435;43.700;-79.318;2023-04-24T00:50:43;7;7;
64138;PMS5003;50435;43.700;-79.318;2023-04-24T00:53:11;6;6;
64138;PMS5003;50435;43.700;-79.318;2023-04-24T00:55:39;6;5;
64138;PMS5003;50435;43.700;-79.318;2023-04-24T00:58:07;8;6;
64138;PMS5003;50435;43.700;-79.318;2023-04-24T01:00:35;6;6;
64138;PMS5003;50435;43.700;-79.318;2023-04-24T01:03:04;8;7;
64138;PMS5003;50435;43.700;-79.318;2023-04-24T01:05:33;9;7;
64138;PMS5003;50435;43.700;-79.318;2023-04-24T01:08:00;6;6;
64138;PMS5003;50435;43.700;-79.318;2023-04-24T01:10:29;5;5;
64138;PMS5003;50435;43.700;-79.318;2023-04-24T01:12:59;8;8;
64138;PMS5003;50435;43.700;-79.318;2023-04-24T01:15:26;5;5;
64138;PMS5003;50435;43.700;-79.318;2023-04-24T01:17:54;5;5;
64138;PMS5003;50435;43.700;-79.318;2023-04-24T01:20:21;6;6;
64138;PMS5003;50435;43.700;-79.318;2023-04-24T01:22:51;7;7;
64138;PMS5003;50435;43.700;-79.318;2023-04-24T01:25:18;7;6;
64138;PMS5003;50435;43.700;-79.318;2023-04-24T01:27:46;6;6;
64138;PMS5003;50435;43.700;-79.318;2023-04-24T01:30:13;4;4;
64138;PMS5003;50435;43.700;-79.318;2023-04-24T01:32:41;6;6;
64138;PMS5003;50435;43.700;-79.318;2023-04-24T01:35:09;7;7;
64138;PMS5003;50435;43.700;-79.318;2023-04-24T01:37:37;4;4;
64138;PMS5003;50435;43.700;-79.318;2023-04-24T01:40:04;5;5;
64138;PMS5003;50435;43.700;-79.318;2023-04-24T01:42:33;8;8;
64138;PMS5003;50435;43.700;-79.318;2023-04-24T01:45:02;10;7;
64138;PMS5003;50435;43.700;-79.318;2023-04-24T01:47:31;6;5;
64138;PMS5003;50435;43.700;-79.318;2023-04-24T01:49:58;5;5;
64138;PMS5003;50435;43.700;-79.318;2023-04-24T01:52:26;6;6;
64138;PMS5003;50435;43.700;-79.318;2023-04-24T01:54:53;6;6;
64138;PMS5003;50435;43.700;-79.318;2023-04-24T01:57:20;7;6;
64138;PMS5003;50435;43.700;-79.318;2023-04-24T01:59:48;4;4;
64138;PMS5003;50435;43.700;-79.318;2023-04-24T02:02:17;5;5;
64138;PMS5003;50435;43.700;-79.318;2023-04-24T02:04:45;6;6;
64138;PMS5003;50435;43.700;-79.318;2023-04-24T02:07:13;5;5;
64138;PMS5003;50435;43.700;-79.318;2023-04-24T02:09:40;4;4;
64138;PMS5003;50435;43.700;-79.318;2023-04-24T02:12:08;6;6;
64138;PMS5003;50435;43.700;-79.318;2023-04-24T02:14:35;5;5;
64138;PMS5003;50435;43.700;-79.318;2023-04-24T02:17:02;4;4;
64138;PMS5003;50435;43.700;-79.318;2023-04-24T02:19:30;6;6;
64138;PMS5003;50435;43.700;-79.318;2023-04-24T02:21:58;7;7;
64138;PMS5003;50435;43.700;-79.318;2023-04-24T02:24:25;5;5;
64138;PMS5003;50435;43.700;-79.318;2023-04-24T02:26:53;7;6;
64138;PMS5003;50435;43.700;-79.318;2023-04-24T02:29:20;5;5;
64138;PMS5003;50435;43.700;-79.318;2023-04-24T02:31:47;4;3;
64138;PMS5003;50435;43.700;-79.318;2023-04-24T02:34:15;5;5;
64138;PMS5003;50435;43.700;-79.318;2023-04-24T02:36:43;5;5;
64138;PMS5003;50435;43.700;-79.318;2023-04-24T02:39:10;5;5;
64138;PMS5003;50435;43.700;-79.318;2023-04-24T02:41:37;6;6;
64138;PMS5003;50435;43.700;-79.318;2023-04-24T02:44:04;5;5;
64138;PMS5003;50435;43.700;-79.318;2023-04-24T02:46:31;5;4;
64138;PMS5003;50435;43.700;-79.318;2023-04-24T02:48:58;6;5;
64138;PMS5003;50435;43.700;-79.318;2023-04-24T02:51:26;6;6;
64138;PMS5003;50435;43.700;-79.318;2023-04-24T02:53:53;6;6;
64138;PMS5003;50435;43.700;-79.318;2023-04-24T02:56:21;5;5;
64138;PMS5003;50435;43.700;-79.318;2023-04-24T02:58:48;5;4;
64138;PMS5003;50435;43.700;-79.318;2023-04-24T03:01:15;5;5;
64138;PMS5003;50435;43.700;-79.318;2023-04-24T03:03:43;6;6;
64138;PMS5003;50435;43.700;-79.318;2023-04-24T03:06:10;6;5;
64138;PMS5003;50435;43.700;-79.318;2023-04-24T03:08:38;7;5;
64138;PMS5003;50435;43.700;-79.318;2023-04-24T03:11:05;6;6;
64138;PMS5003;50435;43.700;-79.318;2023-04-24T03:13:32;7;6;
64138;PMS5003;50435;43.700;-79.318;2023-04-24T03:15:59;6;6;
64138;PMS5003;50435;43.700;-79.318;2023-04-24T03:18:26;7;6;
64138;PMS5003;50435;43.700;-79.318;2023-04-24T03:20:54;6;6;
64138;PMS5003;50435;43.700;-79.318;2023-04-24T03:23:21;8;7;
64138;PMS5003;50435;43.700;-79.318;2023-04-24T03:25:48;6;6;
64138;PMS5003;50435;43.700;-79.318;2023-04-24T03:28:15;5;5;
64138;PMS5003;50435;43.700;-79.318;2023-04-24T03:30:42;6;6;
64138;PMS5003;50435;43.700;-79.318;2023-04-24T03:33:09;7;6;
64138;PMS5003;50435;43.700;-79.318;2023-04-24T03:35:37;9;9;
64138;PMS5003;50435;43.700;-79.318;2023-04-24T03:38:05;6;6;
64138;PMS5003;50435;43.700;-79.318;2023-04-24T03:40:33;6;5;
64138;PMS5003;50435;43.700;-79.318;2023-04-24T03:43:00;8;7;
64138;PMS5003;50435;43.700;-79.318;2023-04-24T03:45:27;6;6;
64138;PMS5003;50435;43.700;-79.318;2023-04-24T03:47:54;7;6;
64138;PMS5003;50435;43.700;-79.318;2023-04-24T03:50:22;6;6;
64138;PMS5003;50435;43.700;-79.318;2023-04-24T03:52:50;6;5;
64138;PMS5003;50435;43.700;-79.318;2023-04-24T03:55:17;8;8;
64138;PMS5003;50435;43.700;-79.318;2023-04-24T03:57:45;7;7;
64138;PMS5003;50435;43.700;-79.318;2023-04-24T04:00:13;10;6;
64138;PMS5003;50435;43.700;-79.318;2023-04-24T04:02:40;6;6;
64138;PMS5003;50435;43.700;-79.318;2023-04-24T04:05:08;12;11;
64138;PMS5003;50435;43.700;-79.318;2023-04-24T04:07:36;8;8;
64138;PMS5003;50435;43.700;-79.318;2023-04-24T04:10:05;7;6;
64138;PMS5003;50435;43.700;-79.318;2023-04-24T04:12:33;8;8;
64138;PMS5003;50435;43.700;-79.318;2023-04-24T04:15:01;6;6;
64138;PMS5003;50435;43.700;-79.318;2023-04-24T04:17:29;8;8;
64138;PMS5003;50435;43.700;-79.318;2023-04-24T04:19:56;9;9;
64138;PMS5003;50435;43.700;-79.318;2023-04-24T04:22:23;7;7;
64138;PMS5003;50435;43.700;-79.318;2023-04-24T04:24:50;10;8;
64138;PMS5003;50435;43.700;-79.318;2023-04-24T04:27:17;7;7;
64138;PMS5003;50435;43.700;-79.318;2023-04-24T04:29:45;9;9;
64138;PMS5003;50435;43.700;-79.318;2023-04-24T04:32:12;8;8;
64138;PMS5003;50435;43.700;-79.318;2023-04-24T04:34:39;11;9;
64138;PMS5003;50435;43.700;-79.318;2023-04-24T04:37:07;6;6;
64138;PMS5003;50435;43.700;-79.318;2023-04-24T04:39:35;7;6;
64138;PMS5003;50435;43.700;-79.318;2023-04-24T04:42:02;7;7;
64138;PMS5003;50435;43.700;-79.318;2023-04-24T04:44:29;8;8;
64138;PMS5003;50435;43.700;-79.318;2023-04-24T04:46:57;8;8;
64138;PMS5003;50435;43.700;-79.318;2023-04-24T04:49:25;7;7;
64138;PMS5003;50435;43.700;-79.318;2023-04-24T04:51:52;7;7;
64138;PMS5003;50435;43.700;-79.318;2023-04-24T04:54:19;7;7;
64138;PMS5003;50435;43.700;-79.318;2023-04-24T04:56:46;9;8;
64138;PMS5003;50435;43.700;-79.318;2023-04-24T04:59:15;10;7;
64138;PMS5003;50435;43.700;-79.318;2023-04-24T05:01:43;6;5;
64138;PMS5003;50435;43.700;-79.318;2023-04-24T05:04:10;9;8;
64138;PMS5003;50435;43.700;-79.318;2023-04-24T05:06:37;6;6;
64138;PMS5003;50435;43.700;-79.318;2023-04-24T05:09:04;8;6;
64138;PMS5003;50435;43.700;-79.318;2023-04-24T05:11:32;8;8;
64138;PMS5003;50435;43.700;-79.318;2023-04-24T05:13:59;6;6;
64138;PMS5003;50435;43.700;-79.318;2023-04-24T05:16:26;7;7;
64138;PMS5003;50435;43.700;-79.318;2023-04-24T05:18:54;5;5;
64138;PMS5003;50435;43.700;-79.318;2023-04-24T05:21:21;7;7;
64138;PMS5003;50435;43.700;-79.318;2023-04-24T05:23:49;7;7;
64138;PMS5003;50435;43.700;-79.318;2023-04-24T05:26:16;7;7;
64138;PMS5003;50435;43.700;-79.318;2023-04-24T05:28:43;8;8;
64138;PMS5003;50435;43.700;-79.318;2023-04-24T05:31:10;7;6;
64138;PMS5003;50435;43.700;-79.318;2023-04-24T05:33:37;11;8;
64138;PMS5003;50435;43.700;-79.318;2023-04-24T05:36:06;9;8;
64138;PMS5003;50435;43.700;-79.318;2023-04-24T05:38:33;8;8;
64138;PMS5003;50435;43.700;-79.318;2023-04-24T05:41:00;6;6;
64138;PMS5003;50435;43.700;-79.318;2023-04-24T05:43:28;6;6;
64138;PMS5003;50435;43.700;-79.318;2023-04-24T05:45:55;8;6;
64138;PMS5003;50435;43.700;-79.318;2023-04-24T05:48:23;6;5;
64138;PMS5003;50435;43.700;-79.318;2023-04-24T05:50:50;6;6;
64138;PMS5003;50435;43.700;-79.318;2023-04-24T05:53:17;8;7;
64138;PMS5003;50435;43.700;-79.318;2023-04-24T05:55:45;5;5;
64138;PMS5003;50435;43.700;-79.318;2023-04-24T05:58:14;8;8;
64138;PMS5003;50435;43.700;-79.318;2023-04-24T06:00:41;7;7;
64138;PMS5003;50435;43.700;-79.318;2023-04-24T06:03:08;8;7;
64138;PMS5003;50435;43.700;-79.318;2023-04-24T06:05:36;7;7;
64138;PMS5003;50435;43.700;-79.318;2023-04-24T06:08:03;9;9;
64138;PMS5003;50435;43.700;-79.318;2023-04-24T06:10:30;7;7;
64138;PMS5003;50435;43.700;-79.318;2023-04-24T06:12:58;5;5;
64138;PMS5003;50435;43.700;-79.318;2023-04-24T06:15:27;5;5;
64138;PMS5003;50435;43.700;-79.318;2023-04-24T06:17:55;6;6;
64138;PMS5003;50435;43.700;-79.318;2023-04-24T06:20:22;7;7;
64138;PMS5003;50435;43.700;-79.318;2023-04-24T06:22:50;8;7;
64138;PMS5003;50435;43.700;-79.318;2023-04-24T06:25:17;7;7;
64138;PMS5003;50435;43.700;-79.318;2023-04-24T06:27:45;8;6;
64138;PMS5003;50435;43.700;-79.318;2023-04-24T06:30:12;7;6;
64138;PMS5003;50435;43.700;-79.318;2023-04-24T06:32:40;8;8;
64138;PMS5003;50435;43.700;-79.318;2023-04-24T06:35:07;7;6;
64138;PMS5003;50435;43.700;-79.318;2023-04-24T06:37:35;7;7;
64138;PMS5003;50435;43.700;-79.318;2023-04-24T06:40:03;9;9;
64138;PMS5003;50435;43.700;-79.318;2023-04-24T06:42:31;8;7;
64138;PMS5003;50435;43.700;-79.318;2023-04-24T06:44:59;9;7;
64138;PMS5003;50435;43.700;-79.318;2023-04-24T06:47:27;7;7;
64138;PMS5003;50435;43.700;-79.318;2023-04-24T06:49:54;6;6;
64138;PMS5003;50435;43.700;-79.318;2023-04-24T06:52:21;8;8;
64138;PMS5003;50435;43.700;-79.318;2023-04-24T06:54:49;9;7;
64138;PMS5003;50435;43.700;-79.318;2023-04-24T06:57:17;6;6;
64138;PMS5003;50435;43.700;-79.318;2023-04-24T06:59:45;8;8;
64138;PMS5003;50435;43.700;-79.318;2023-04-24T07:02:12;9;7;
64138;PMS5003;50435;43.700;-79.318;2023-04-24T07:04:39;13;12;
64138;PMS5003;50435;43.700;-79.318;2023-04-24T07:07:07;9;8;
64138;PMS5003;50435;43.700;-79.318;2023-04-24T07:09:34;6;6;
64138;PMS5003;50435;43.700;-79.318;2023-04-24T07:12:02;6;6;
64138;PMS5003;50435;43.700;-79.318;2023-04-24T07:14:30;10;9;
64138;PMS5003;50435;43.700;-79.318;2023-04-24T07:16:57;9;8;
64138;PMS5003;50435;43.700;-79.318;2023-04-24T07:19:24;6;6;
64138;PMS5003;50435;43.700;-79.318;2023-04-24T07:21:52;7;6;
64138;PMS5003;50435;43.700;-79.318;2023-04-24T07:24:19;6;6;
64138;PMS5003;50435;43.700;-79.318;2023-04-24T07:26:46;5;5;
64138;PMS5003;50435;43.700;-79.318;2023-04-24T07:29:14;6;6;
64138;PMS5003;50435;43.700;-79.318;2023-04-24T07:31:41;4;4;
64138;PMS5003;50435;43.700;-79.318;2023-04-24T07:34:08;8;6;
64138;PMS5003;50435;43.700;-79.318;2023-04-24T07:36:35;4;4;
64138;PMS5003;50435;43.700;-79.318;2023-04-24T07:39:03;5;5;
64138;PMS5003;50435;43.700;-79.318;2023-04-24T07:41:31;8;6;
64138;PMS5003;50435;43.700;-79.318;2023-04-24T07:43:58;7;7;
64138;PMS5003;50435;43.700;-79.318;2023-04-24T07:46:25;5;5;
64138;PMS5003;50435;43.700;-79.318;2023-04-24T07:48:53;4;4;
64138;PMS5003;50435;43.700;-79.318;2023-04-24T07:51:20;5;5;
64138;PMS5003;50435;43.700;-79.318;2023-04-24T07:53:47;5;5;
64138;PMS5003;50435;43.700;-79.318;2023-04-24T07:56:14;7;7;
64138;PMS5003;50435;43.700;-79.318;2023-04-24T07:58:42;7;6;
64138;PMS5003;50435;43.700;-79.318;2023-04-24T08:01:09;5;5;
64138;PMS5003;50435;43.700;-79.318;2023-04-24T08:03:37;5;4;
64138;PMS5003;50435;43.700;-79.318;2023-04-24T08:06:04;7;6;
64138;PMS5003;50435;43.700;-79.318;2023-04-24T08:08:32;4;4;
64138;PMS5003;50435;43.700;-79.318;2023-04-24T08:11:00;7;5;
64138;PMS5003;50435;43.700;-79.318;2023-04-24T08:13:28;8;8;
64138;PMS5003;50435;43.700;-79.318;2023-04-24T08:15:56;5;5;
64138;PMS5003;50435;43.700;-79.318;2023-04-24T08:18:23;6;6;
64138;PMS5003;50435;43.700;-79.318;2023-04-24T08:20:50;6;6;
64138;PMS5003;50435;43.700;-79.318;2023-04-24T08:23:17;7;6;
64138;PMS5003;50435;43.700;-79.318;2023-04-24T08:25:44;5;5;
64138;PMS5003;50435;43.700;-79.318;2023-04-24T08:28:12;5;5;
64138;PMS5003;50435;43.700;-79.318;2023-04-24T08:30:39;6;6;
64138;PMS5003;50435;43.700;-79.318;2023-04-24T08:33:07;7;7;
64138;PMS5003;50435;43.700;-79.318;2023-04-24T08:35:34;6;5;
64138;PMS5003;50435;43.700;-79.318;2023-04-24T08:38:01;7;6;
64138;PMS5003;50435;43.700;-79.318;2023-04-24T08:40:29;7;6;
64138;PMS5003;50435;43.700;-79.318;2023-04-24T08:43:00;7;5;
64138;PMS5003;50435;43.700;-79.318;2023-04-24T08:45:28;7;5;
64138;PMS5003;50435;43.700;-79.318;2023-04-24T08:47:56;11;7;
64138;PMS5003;50435;43.700;-79.318;2023-04-24T08:50:26;7;6;
64138;PMS5003;50435;43.700;-79.318;2023-04-24T08:52:53;5;5;
64138;PMS5003;50435;43.700;-79.318;2023-04-24T08:55:20;6;6;
64138;PMS5003;50435;43.700;-79.318;2023-04-24T08:57:50;8;7;
64138;PMS5003;50435;43.700;-79.318;2023-04-24T09:00:19;3;3;
64138;PMS5003;50435;43.700;-79.318;2023-04-24T09:02:47;5;5;
64138;PMS5003;50435;43.700;-79.318;2023-04-24T09:05:17;6;6;
64138;PMS5003;50435;43.700;-79.318;2023-04-24T09:07:49;7;6;
64138;PMS5003;50435;43.700;-79.318;2023-04-24T09:10:20;6;5;
64138;PMS5003;50435;43.700;-79.318;2023-04-24T09:12:49;6;6;
64138;PMS5003;50435;43.700;-79.318;2023-04-24T09:15:18;7;6;
64138;PMS5003;50435;43.700;-79.318;2023-04-24T09:17:46;5;5;
64138;PMS5003;50435;43.700;-79.318;2023-04-24T09:20:14;6;5;
64138;PMS5003;50435;43.700;-79.318;2023-04-24T09:22:41;5;5;
64138;PMS5003;50435;43.700;-79.318;2023-04-24T09:25:09;5;5;
64138;PMS5003;50435;43.700;-79.318;2023-04-24T09:27:38;5;5;
64138;PMS5003;50435;43.700;-79.318;2023-04-24T09:30:09;6;6;
64138;PMS5003;50435;43.700;-79.318;2023-04-24T09:32:37;8;6;
64138;PMS5003;50435;43.700;-79.318;2023-04-24T09:35:07;6;6;
64138;PMS5003;50435;43.700;-79.318;2023-04-24T09:37:37;6;6;
64138;PMS5003;50435;43.700;-79.318;2023-04-24T09:40:07;7;7;
64138;PMS5003;50435;43.700;-79.318;2023-04-24T09:42:37;5;5;
64138;PMS5003;50435;43.700;-79.318;2023-04-24T09:45:08;5;5;
64138;PMS5003;50435;43.700;-79.318;2023-04-24T09:47:36;5;5;
64138;PMS5003;50435;43.700;-79.318;2023-04-24T09:50:20;7;7;
64138;PMS5003;50435;43.700;-79.318;2023-04-24T09:52:56;5;5;
64138;PMS5003;50435;43.700;-79.318;2023-04-24T09:55:25;5;5;
64138;PMS5003;50435;43.700;-79.318;2023-04-24T09:57:53;5;5;
64138;PMS5003;50435;43.700;-79.318;2023-04-24T10:00:22;6;6;
64138;PMS5003;50435;43.700;-79.318;2023-04-24T10:02:51;7;5;
64138;PMS5003;50435;43.700;-79.318;2023-04-24T10:05:24;7;7;
64138;PMS5003;50435;43.700;-79.318;2023-04-24T10:07:57;7;6;
64138;PMS5003;50435;43.700;-79.318;2023-04-24T10:10:27;5;5;
64138;PMS5003;50435;43.700;-79.318;2023-04-24T10:12:55;6;6;
64138;PMS5003;50435;43.700;-79.318;2023-04-24T10:15:22;7;6;
64138;PMS5003;50435;43.700;-79.318;2023-04-24T10:17:51;7;6;
64138;PMS5003;50435;43.700;-79.318;2023-04-24T10:20:19;5;5;
64138;PMS5003;50435;43.700;-79.318;2023-04-24T10:22:48;7;5;
64138;PMS5003;50435;43.700;-79.318;2023-04-24T10:25:18;7;5;
64138;PMS5003;50435;43.700;-79.318;2023-04-24T10:27:47;7;5;
64138;PMS5003;50435;43.700;-79.318;2023-04-24T10:30:16;5;5;
64138;PMS5003;50435;43.700;-79.318;2023-04-24T10:32:43;7;6;
64138;PMS5003;50435;43.700;-79.318;2023-04-24T10:35:11;9;6;
64138;PMS5003;50435;43.700;-79.318;2023-04-24T10:37:42;8;8;
64138;PMS5003;50435;43.700;-79.318;2023-04-24T10:40:12;7;7;
64138;PMS5003;50435;43.700;-79.318;2023-04-24T10:42:46;3;3;
64138;PMS5003;50435;43.700;-79.318;2023-04-24T10:45:16;6;6;
64138;PMS5003;50435;43.700;-79.318;2023-04-24T10:47:50;7;7;
64138;PMS5003;50435;43.700;-79.318;2023-04-24T10:50:19;9;8;
64138;PMS5003;50435;43.700;-79.318;2023-04-24T10:52:47;9;7;
64138;PMS5003;50435;43.700;-79.318;2023-04-24T10:55:16;6;6;
64138;PMS5003;50435;43.700;-79.318;2023-04-24T10:58:05;7;7;
64138;PMS5003;50435;43.700;-79.318;2023-04-24T11:00:33;7;7;
64138;PMS5003;50435;43.700;-79.318;2023-04-24T11:03:04;7;6;
64138;PMS5003;50435;43.700;-79.318;2023-04-24T11:06:05;6;6;
64138;PMS5003;50435;43.700;-79.318;2023-04-24T11:08:37;8;7;
64138;PMS5003;50435;43.700;-79.318;2023-04-24T11:11:08;7;6;
64138;PMS5003;50435;43.700;-79.318;2023-04-24T11:14:09;7;7;
64138;PMS5003;50435;43.700;-79.318;2023-04-24T11:16:42;9;9;
64138;PMS5003;50435;43.700;-79.318;2023-04-24T11:19:20;7;6;
64138;PMS5003;50435;43.700;-79.318;2023-04-24T11:21:54;5;5;
64138;PMS5003;50435;43.700;-79.318;2023-04-24T11:24:23;9;6;
64138;PMS5003;50435;43.700;-79.318;2023-04-24T11:26:53;7;7;
64138;PMS5003;50435;43.700;-79.318;2023-04-24T11:29:22;7;7;
64138;PMS5003;50435;43.700;-79.318;2023-04-24T11:31:49;4;4;
64138;PMS5003;50435;43.700;-79.318;2023-04-24T11:34:17;6;6;
64138;PMS5003;50435;43.700;-79.318;2023-04-24T11:36:45;5;5;
64138;PMS5003;50435;43.700;-79.318;2023-04-24T11:39:13;6;6;
64138;PMS5003;50435;43.700;-79.318;2023-04-24T11:41:41;7;7;
64138;PMS5003;50435;43.700;-79.318;2023-04-24T11:44:09;9;7;
64138;PMS5003;50435;43.700;-79.318;2023-04-24T11:46:36;9;9;
64138;PMS5003;50435;43.700;-79.318;2023-04-24T11:49:03;11;10;
64138;PMS5003;50435;43.700;-79.318;2023-04-24T11:51:31;7;6;
64138;PMS5003;50435;43.700;-79.318;2023-04-24T11:53:58;7;7;
64138;PMS5003;50435;43.700;-79.318;2023-04-24T11:56:26;7;7;
64138;PMS5003;50435;43.700;-79.318;2023-04-24T11:58:53;7;6;
64138;PMS5003;50435;43.700;-79.318;2023-04-24T12:01:21;10;10;
64138;PMS5003;50435;43.700;-79.318;2023-04-24T12:03:49;7;7;
64138;PMS5003;50435;43.700;-79.318;2023-04-24T12:06:17;10;8;
64138;PMS5003;50435;43.700;-79.318;2023-04-24T12:08:45;9;8;
64138;PMS5003;50435;43.700;-79.318;2023-04-24T12:11:15;7;7;
64138;PMS5003;50435;43.700;-79.318;2023-04-24T12:13:43;7;7;
64138;PMS5003;50435;43.700;-79.318;2023-04-24T12:16:11;9;9;
64138;PMS5003;50435;43.700;-79.318;2023-04-24T12:18:42;11;9;
64138;PMS5003;50435;43.700;-79.318;2023-04-24T12:21:15;8;8;
64138;PMS5003;50435;43.700;-79.318;2023-04-24T12:23:44;9;9;
64138;PMS5003;50435;43.700;-79.318;2023-04-24T12:26:12;11;11;
64138;PMS5003;50435;43.700;-79.318;2023-04-24T12:28:42;6;6;
64138;PMS5003;50435;43.700;-79.318;2023-04-24T12:31:12;7;5;
64138;PMS5003;50435;43.700;-79.318;2023-04-24T12:33:40;15;12;
64138;PMS5003;50435;43.700;-79.318;2023-04-24T12:36:07;9;7;
64138;PMS5003;50435;43.700;-79.318;2023-04-24T12:38:36;7;7;
64138;PMS5003;50435;43.700;-79.318;2023-04-24T12:41:04;9;9;
64138;PMS5003;50435;43.700;-79.318;2023-04-24T12:43:33;10;9;
64138;PMS5003;50435;43.700;-79.318;2023-04-24T12:46:00;10;8;
64138;PMS5003;50435;43.700;-79.318;2023-04-24T12:48:29;9;8;
64138;PMS5003;50435;43.700;-79.318;2023-04-24T12:50:57;8;7;
64138;PMS5003;50435;43.700;-79.318;2023-04-24T12:53:25;7;7;
64138;PMS5003;50435;43.700;-79.318;2023-04-24T12:55:52;7;7;
64138;PMS5003;50435;43.700;-79.318;2023-04-24T12:58:20;10;8;
64138;PMS5003;50435;43.700;-79.318;2023-04-24T13:00:48;10;9;
64138;PMS5003;50435;43.700;-79.318;2023-04-24T13:03:16;10;8;
64138;PMS5003;50435;43.700;-79.318;2023-04-24T13:05:43;9;7;
64138;PMS5003;50435;43.700;-79.318;2023-04-24T13:08:11;10;8;
64138;PMS5003;50435;43.700;-79.318;2023-04-24T13:10:38;8;7;
64138;PMS5003;50435;43.700;-79.318;2023-04-24T13:13:06;14;8;
64138;PMS5003;50435;43.700;-79.318;2023-04-24T13:15:34;8;8;
64138;PMS5003;50435;43.700;-79.318;2023-04-24T13:18:01;8;7;
64138;PMS5003;50435;43.700;-79.318;2023-04-24T13:20:29;8;7;
64138;PMS5003;50435;43.700;-79.318;2023-04-24T13:22:56;11;8;
64138;PMS5003;50435;43.700;-79.318;2023-04-24T13:25:24;10;10;
64138;PMS5003;50435;43.700;-79.318;2023-04-24T13:27:51;9;8;
64138;PMS5003;50435;43.700;-79.318;2023-04-24T13:30:18;8;8;
64138;PMS5003;50435;43.700;-79.318;2023-04-24T13:32:46;7;7;
64138;PMS5003;50435;43.700;-79.318;2023-04-24T13:35:13;13;7;
64138;PMS5003;50435;43.700;-79.318;2023-04-24T13:37:40;6;6;
64138;PMS5003;50435;43.700;-79.318;2023-04-24T13:40:08;8;8;
64138;PMS5003;50435;43.700;-79.318;2023-04-24T13:42:36;9;8;
64138;PMS5003;50435;43.700;-79.318;2023-04-24T13:45:04;11;11;
64138;PMS5003;50435;43.700;-79.318;2023-04-24T13:47:32;7;7;
64138;PMS5003;50435;43.700;-79.318;2023-04-24T13:50:00;9;7;
64138;PMS5003;50435;43.700;-79.318;2023-04-24T13:52:28;8;8;
64138;PMS5003;50435;43.700;-79.318;2023-04-24T13:54:56;9;8;
64138;PMS5003;50435;43.700;-79.318;2023-04-24T13:57:23;9;7;
64138;PMS5003;50435;43.700;-79.318;2023-04-24T13:59:51;12;11;
64138;PMS5003;50435;43.700;-79.318;2023-04-24T14:02:18;8;8;
64138;PMS5003;50435;43.700;-79.318;2023-04-24T14:04:45;8;8;
64138;PMS5003;50435;43.700;-79.318;2023-04-24T14:07:13;10;10;
64138;PMS5003;50435;43.700;-79.318;2023-04-24T14:09:40;8;8;
64138;PMS5003;50435;43.700;-79.318;2023-04-24T14:12:08;11;10;
64138;PMS5003;50435;43.700;-79.318;2023-04-24T14:14:35;7;7;
64138;PMS5003;50435;43.700;-79.318;2023-04-24T14:17:02;7;7;
64138;PMS5003;50435;43.700;-79.318;2023-04-24T14:19:29;13;10;
64138;PMS5003;50435;43.700;-79.318;2023-04-24T14:21:57;12;9;
64138;PMS5003;50435;43.700;-79.318;2023-04-24T14:24:25;13;12;
64138;PMS5003;50435;43.700;-79.318;2023-04-24T14:26:53;10;8;
64138;PMS5003;50435;43.700;-79.318;2023-04-24T14:29:20;14;13;
64138;PMS5003;50435;43.700;-79.318;2023-04-24T14:31:48;10;9;
64138;PMS5003;50435;43.700;-79.318;2023-04-24T14:34:15;11;9;
64138;PMS5003;50435;43.700;-79.318;2023-04-24T14:36:42;12;10;
64138;PMS5003;50435;43.700;-79.318;2023-04-24T14:39:10;9;9;
64138;PMS5003;50435;43.700;-79.318;2023-04-24T14:41:37;10;8;
64138;PMS5003;50435;43.700;-79.318;2023-04-24T14:44:05;12;10;
64138;PMS5003;50435;43.700;-79.318;2023-04-24T14:46:33;14;10;
64138;PMS5003;50435;43.700;-79.318;2023-04-24T14:49:01;14;9;
64138;PMS5003;50435;43.700;-79.318;2023-04-24T14:51:29;8;8;
64138;PMS5003;50435;43.700;-79.318;2023-04-24T14:53:56;11;9;
64138;PMS5003;50435;43.700;-79.318;2023-04-24T14:56:24;12;11;
64138;PMS5003;50435;43.700;-79.318;2023-04-24T14:58:51;12;11;
64138;PMS5003;50435;43.700;-79.318;2023-04-24T15:01:19;14;11;
64138;PMS5003;50435;43.700;-79.318;2023-04-24T15:03:46;14;14;
64138;PMS5003;50435;43.700;-79.318;2023-04-24T15:06:15;11;10;
64138;PMS5003;50435;43.700;-79.318;2023-04-24T15:08:43;16;12;
64138;PMS5003;50435;43.700;-79.318;2023-04-24T15:11:11;10;10;
64138;PMS5003;50435;43.700;-79.318;2023-04-24T15:13:38;12;8;
64138;PMS5003;50435;43.700;-79.318;2023-04-24T15:16:06;13;12;
64138;PMS5003;50435;43.700;-79.318;2023-04-24T15:18:33;14;12;
64138;PMS5003;50435;43.700;-79.318;2023-04-24T15:21:01;9;9;
64138;PMS5003;50435;43.700;-79.318;2023-04-24T15:23:29;11;10;
64138;PMS5003;50435;43.700;-79.318;2023-04-24T15:25:56;10;10;
64138;PMS5003;50435;43.700;-79.318;2023-04-24T15:28:23;13;10;
64138;PMS5003;50435;43.700;-79.318;2023-04-24T15:30:51;18;16;
64138;PMS5003;50435;43.700;-79.318;2023-04-24T15:33:19;13;11;
64138;PMS5003;50435;43.700;-79.318;2023-04-24T15:35:47;12;10;
64138;PMS5003;50435;43.700;-79.318;2023-04-24T15:38:15;12;10;
64138;PMS5003;50435;43.700;-79.318;2023-04-24T15:40:42;9;9;
64138;PMS5003;50435;43.700;-79.318;2023-04-24T15:43:09;10;9;
64138;PMS5003;50435;43.700;-79.318;2023-04-24T15:45:36;8;8;
64138;PMS5003;50435;43.700;-79.318;2023-04-24T15:48:04;10;9;
64138;PMS5003;50435;43.700;-79.318;2023-04-24T15:50:31;9;8;
64138;PMS5003;50435;43.700;-79.318;2023-04-24T15:52:59;9;9;
64138;PMS5003;50435;43.700;-79.318;2023-04-24T15:55:27;11;10;
64138;PMS5003;50435;43.700;-79.318;2023-04-24T15:57:54;6;6;
64138;PMS5003;50435;43.700;-79.318;2023-04-24T16:00:22;7;7;
64138;PMS5003;50435;43.700;-79.318;2023-04-24T16:02:50;9;7;
64138;PMS5003;50435;43.700;-79.318;2023-04-24T16:05:17;12;12;
64138;PMS5003;50435;43.700;-79.318;2023-04-24T16:07:45;8;7;
64138;PMS5003;50435;43.700;-79.318;2023-04-24T16:10:12;6;6;
64138;PMS5003;50435;43.700;-79.318;2023-04-24T16:12:40;7;7;
64138;PMS5003;50435;43.700;-79.318;2023-04-24T16:15:08;7;7;
64138;PMS5003;50435;43.700;-79.318;2023-04-24T16:17:36;6;6;
64138;PMS5003;50435;43.700;-79.318;2023-04-24T16:20:04;8;5;